createdAt,value
2023-05-08T00:00:42.226Z,4.45
2023-05-08T00:03:09.900Z,4.47
2023-05-08T00:05:37.444Z,4.53
2023-05-08T00:08:05.032Z,4.70
2023-05-08T00:10:32.434Z,4.20
2023-05-08T00:12:59.997Z,4.15
2023-05-08T00:15:27.455Z,4.85
2023-05-08T00:17:54.980Z,4.38
2023-05-08T00:20:22.436Z,4.63
2023-05-08T00:22:49.960Z,4.55
2023-05-08T00:25:17.381Z,4.45
2023-05-08T00:27:44.803Z,4.13
2023-05-08T00:30:12.646Z,4.15
2023-05-08T00:32:41.116Z,5.15
2023-05-08T00:35:08.695Z,4.32
2023-05-08T00:37:37.797Z,4.22
2023-05-08T00:40:05.339Z,4.40
2023-05-08T00:42:32.758Z,4.43
2023-05-08T00:45:00.218Z,4.13
2023-05-08T00:47:27.766Z,4.50
2023-05-08T00:49:55.217Z,4.30
2023-05-08T00:52:22.746Z,4.43
2023-05-08T00:54:50.281Z,4.40
2023-05-08T00:57:18.727Z,4.28
2023-05-08T00:59:47.164Z,4.32
2023-05-08T01:02:15.583Z,4.22
2023-05-08T01:04:46.252Z,4.65
2023-05-08T01:07:13.625Z,4.25
2023-05-08T01:09:41.006Z,4.20
2023-05-08T01:12:11.652Z,4.43
2023-05-08T01:15:01.488Z,4.22
2023-05-08T01:17:35.633Z,3.70
2023-05-08T01:20:18.498Z,4.25
2023-05-08T01:22:46.049Z,4.20
2023-05-08T01:25:32.186Z,3.50
2023-05-08T01:28:23.187Z,3.97
2023-05-08T01:30:59.453Z,4.38
2023-05-08T01:33:29.673Z,3.70
2023-05-08T01:35:59.793Z,4.40
2023-05-08T01:38:35.577Z,3.90
2023-05-08T01:41:09.223Z,3.92
2023-05-08T01:43:52.059Z,3.88
2023-05-08T01:46:21.531Z,3.95
2023-05-08T01:49:06.022Z,3.63
2023-05-08T01:51:43.943Z,3.90
2023-05-08T01:54:13.430Z,4.00
2023-05-08T01:56:43.186Z,4.18
2023-05-08T01:59:11.305Z,4.65
2023-05-08T02:01:39.652Z,4.25
2023-05-08T02:04:07.917Z,4.10
2023-05-08T02:06:38.118Z,4.13
2023-05-08T02:09:08.083Z,5.18
2023-05-08T02:11:36.341Z,4.60
2023-05-08T02:14:05.243Z,4.63
2023-05-08T02:16:33.286Z,4.60
2023-05-08T02:19:01.522Z,4.43
2023-05-08T02:21:29.642Z,4.78
2023-05-08T02:23:57.704Z,4.78
2023-05-08T02:26:26.364Z,4.60
2023-05-08T02:28:54.869Z,5.10
2023-05-08T02:31:22.682Z,5.40
2023-05-08T02:33:50.290Z,5.72
2023-05-08T02:36:19.834Z,5.10
2023-05-08T02:38:49.233Z,5.13
2023-05-08T02:41:18.824Z,5.53
2023-05-08T02:43:46.889Z,5.68
2023-05-08T02:46:20.487Z,5.53
2023-05-08T02:48:54.891Z,5.82
2023-05-08T02:51:38.651Z,5.40
2023-05-08T02:54:11.119Z,5.13
2023-05-08T02:56:39.861Z,5.47
2023-05-08T02:59:31.065Z,5.63
2023-05-08T03:02:11.253Z,5.70
2023-05-08T03:04:43.125Z,5.28
2023-05-08T03:07:11.275Z,5.00
2023-05-08T03:09:46.226Z,5.45
2023-05-08T03:12:16.200Z,5.60
2023-05-08T03:14:46.535Z,5.03
2023-05-08T03:17:14.864Z,5.57
2023-05-08T03:19:43.461Z,4.53
2023-05-08T03:22:11.199Z,4.70
2023-05-08T03:24:40.267Z,4.82
2023-05-08T03:27:08.279Z,5.35
2023-05-08T03:29:36.757Z,5.00
2023-05-08T03:32:04.536Z,5.22
2023-05-08T03:34:32.050Z,5.13
2023-05-08T03:36:59.649Z,5.03
2023-05-08T03:39:27.344Z,4.90
2023-05-08T03:41:56.315Z,5.53
2023-05-08T03:44:25.288Z,5.07
2023-05-08T03:46:53.690Z,4.93
2023-05-08T03:49:23.145Z,5.30
2023-05-08T03:51:50.894Z,4.95
2023-05-08T03:54:18.284Z,5.10
2023-05-08T03:56:47.915Z,5.15
2023-05-08T03:59:18.466Z,4.68
2023-05-08T04:01:58.154Z,5.63
2023-05-08T04:04:28.687Z,5.40
2023-05-08T04:07:11.717Z,4.75
2023-05-08T04:10:04.870Z,4.65
2023-05-08T04:13:08.374Z,4.80
2023-05-08T04:15:48.701Z,4.20
2023-05-08T04:18:18.948Z,4.60
2023-05-08T04:20:50.310Z,5.47
2023-05-08T04:23:19.370Z,5.68
2023-05-08T04:25:47.719Z,4.70
2023-05-08T04:28:16.030Z,4.30
2023-05-08T04:30:43.638Z,4.10
2023-05-08T04:33:12.197Z,4.80
2023-05-08T04:35:39.823Z,4.75
2023-05-08T04:38:07.683Z,4.00
2023-05-08T04:40:35.370Z,4.22
2023-05-08T04:43:03.481Z,4.30
2023-05-08T04:45:30.985Z,4.28
2023-05-08T04:47:58.512Z,3.95
2023-05-08T04:50:26.439Z,4.13
2023-05-08T04:52:53.988Z,3.97
2023-05-08T04:55:21.516Z,3.83
2023-05-08T04:57:49.172Z,3.92
2023-05-08T05:00:17.156Z,3.90
2023-05-08T05:02:46.515Z,3.50
2023-05-08T05:05:14.340Z,3.40
2023-05-08T05:07:42.060Z,3.20
2023-05-08T05:10:11.552Z,3.28
2023-05-08T05:12:39.211Z,3.17
2023-05-08T05:15:07.150Z,3.28
2023-05-08T05:17:36.881Z,3.42
2023-05-08T05:20:06.032Z,3.30
2023-05-08T05:22:34.053Z,2.83
2023-05-08T05:25:01.876Z,2.85
2023-05-08T05:27:29.610Z,2.90
2023-05-08T05:29:57.171Z,3.03
2023-05-08T05:32:24.685Z,3.72
2023-05-08T05:34:53.913Z,2.72
2023-05-08T05:37:22.326Z,2.42
2023-05-08T05:39:49.973Z,2.80
2023-05-08T05:42:17.431Z,2.90
2023-05-08T05:44:44.938Z,2.55
2023-05-08T05:47:12.648Z,2.85
2023-05-08T05:49:46.749Z,3.00
2023-05-08T05:52:14.673Z,2.97
2023-05-08T05:54:42.650Z,3.05
2023-05-08T05:57:10.283Z,2.55
2023-05-08T05:59:38.451Z,2.85
2023-05-08T06:02:10.475Z,2.63
2023-05-08T06:04:38.873Z,2.40
2023-05-08T06:07:07.695Z,2.70
2023-05-08T06:09:35.189Z,2.50
2023-05-08T06:12:02.601Z,2.67
2023-05-08T06:14:31.070Z,3.10
2023-05-08T06:17:00.003Z,2.35
2023-05-08T06:19:28.620Z,2.72
2023-05-08T06:21:56.298Z,2.90
2023-05-08T06:24:23.697Z,2.80
2023-05-08T06:26:51.192Z,2.67
2023-05-08T06:29:18.656Z,2.28
2023-05-08T06:31:46.115Z,2.72
2023-05-08T06:34:13.619Z,2.85
2023-05-08T06:36:41.370Z,2.47
2023-05-08T06:39:09.174Z,2.55
2023-05-08T06:41:36.959Z,2.53
2023-05-08T06:44:04.431Z,2.47
2023-05-08T06:46:32.004Z,2.42
2023-05-08T06:48:59.494Z,2.40
2023-05-08T06:51:27.171Z,2.45
2023-05-08T06:53:54.582Z,2.25
2023-05-08T06:56:22.843Z,2.28
2023-05-08T06:58:57.092Z,2.33
2023-05-08T07:01:32.379Z,2.50
2023-05-08T07:04:00.744Z,2.35
2023-05-08T07:06:28.316Z,2.80
2023-05-08T07:08:55.666Z,2.70
2023-05-08T07:11:23.157Z,2.40
2023-05-08T07:13:50.697Z,2.40
2023-05-08T07:16:18.190Z,3.08
2023-05-08T07:18:45.690Z,2.25
2023-05-08T07:21:13.381Z,2.40
2023-05-08T07:23:40.737Z,2.80
2023-05-08T07:26:08.278Z,2.83
2023-05-08T07:28:35.692Z,2.50
2023-05-08T07:31:07.219Z,2.53
2023-05-08T07:33:34.733Z,2.60
2023-05-08T07:36:02.127Z,2.78
2023-05-08T07:38:29.726Z,2.67
2023-05-08T07:40:57.565Z,2.75
2023-05-08T07:43:25.064Z,2.47
2023-05-08T07:45:52.811Z,2.83
2023-05-08T07:48:20.384Z,2.80
2023-05-08T07:50:47.908Z,2.60
2023-05-08T07:53:15.350Z,3.40
2023-05-08T07:55:42.852Z,2.95
2023-05-08T07:58:10.316Z,3.80
2023-05-08T08:00:37.914Z,4.43
2023-05-08T08:03:05.310Z,3.55
2023-05-08T08:05:32.871Z,3.85
2023-05-08T08:08:00.416Z,3.80
2023-05-08T08:10:28.101Z,4.18
2023-05-08T08:12:55.540Z,3.40
2023-05-08T08:15:23.057Z,3.42
2023-05-08T08:17:50.900Z,3.83
2023-05-08T08:20:18.440Z,3.40
2023-05-08T08:22:45.817Z,3.67
2023-05-08T08:25:13.551Z,3.35
2023-05-08T08:27:41.265Z,3.40
2023-05-08T08:30:16.868Z,4.10
2023-05-08T08:32:46.067Z,3.90
2023-05-08T08:35:13.966Z,3.50
2023-05-08T08:37:42.048Z,4.00
2023-05-08T08:40:10.001Z,3.13
2023-05-08T08:42:37.479Z,4.05
2023-05-08T08:45:05.022Z,3.65
2023-05-08T08:47:41.351Z,4.07
2023-05-08T08:50:11.302Z,3.95
2023-05-08T08:52:46.388Z,3.92
2023-05-08T08:55:16.762Z,4.20
2023-05-08T08:58:03.142Z,4.05
2023-05-08T09:00:32.496Z,3.83
2023-05-08T09:03:00.598Z,3.72
2023-05-08T09:05:28.583Z,3.63
2023-05-08T09:07:56.237Z,3.65
2023-05-08T09:10:24.998Z,4.00
2023-05-08T09:12:52.697Z,3.60
2023-05-08T09:15:20.143Z,4.07
2023-05-08T09:17:47.739Z,3.97
2023-05-08T09:20:16.302Z,4.40
2023-05-08T09:22:44.560Z,4.38
2023-05-08T09:25:12.286Z,3.85
2023-05-08T09:27:40.067Z,4.10
2023-05-08T09:30:11.316Z,4.57
2023-05-08T09:32:39.812Z,3.70
2023-05-08T09:35:08.179Z,4.55
2023-05-08T09:37:38.648Z,4.45
2023-05-08T09:40:15.169Z,4.63
2023-05-08T09:42:42.637Z,5.47
2023-05-08T09:45:10.506Z,4.75
2023-05-08T09:47:39.595Z,4.65
2023-05-08T09:50:08.655Z,5.40
2023-05-08T09:52:37.272Z,4.38
2023-05-08T09:55:11.470Z,4.68
2023-05-08T09:57:39.892Z,4.72
2023-05-08T10:00:10.742Z,5.70
2023-05-08T10:02:39.383Z,4.55
2023-05-08T10:05:23.356Z,5.72
2023-05-08T10:07:50.851Z,4.88
2023-05-08T10:10:26.945Z,4.85
2023-05-08T10:12:57.949Z,4.07
2023-05-08T10:15:26.352Z,4.50
2023-05-08T10:18:09.503Z,3.92
2023-05-08T10:20:40.138Z,4.60
2023-05-08T10:23:14.453Z,4.13
2023-05-08T10:25:44.402Z,4.95
2023-05-08T10:28:23.421Z,4.40
2023-05-08T10:30:51.520Z,5.40
2023-05-08T10:33:21.669Z,6.32
2023-05-08T10:35:49.586Z,7.20
2023-05-08T10:38:17.751Z,12.38
2023-05-08T10:40:46.207Z,6.82
2023-05-08T10:43:13.622Z,6.30
2023-05-08T10:45:41.254Z,6.70
2023-05-08T10:48:17.730Z,6.22
2023-05-08T10:50:45.136Z,6.50
2023-05-08T10:53:21.506Z,6.10
2023-05-08T10:55:51.976Z,6.18
2023-05-08T10:58:22.198Z,5.40
2023-05-08T11:00:52.742Z,5.63
2023-05-08T11:03:33.385Z,5.82
2023-05-08T11:06:02.195Z,5.38
2023-05-08T11:08:30.623Z,6.13
2023-05-08T11:11:05.125Z,5.38
2023-05-08T11:13:51.186Z,6.18
2023-05-08T11:16:18.716Z,6.10
2023-05-08T11:19:04.661Z,6.93
2023-05-08T11:21:32.858Z,7.30
2023-05-08T11:24:00.325Z,7.93
2023-05-08T11:26:48.002Z,8.43
2023-05-08T11:29:18.234Z,9.20
2023-05-08T11:31:52.451Z,9.35
2023-05-08T11:34:39.580Z,10.32
2023-05-08T11:37:10.383Z,10.00
2023-05-08T11:39:38.003Z,8.82
2023-05-08T11:42:24.261Z,9.02
2023-05-08T11:45:10.811Z,8.18
2023-05-08T11:47:42.108Z,8.00
2023-05-08T11:50:10.305Z,8.95
2023-05-08T11:52:39.011Z,8.63
2023-05-08T11:55:07.558Z,8.68
2023-05-08T11:57:35.077Z,8.73
2023-05-08T12:00:06.471Z,9.48
2023-05-08T12:02:39.855Z,8.70
2023-05-08T12:05:08.221Z,9.07
2023-05-08T12:07:47.874Z,9.73
2023-05-08T12:10:16.591Z,9.40
2023-05-08T12:12:45.746Z,10.95
2023-05-08T12:15:14.494Z,10.45
2023-05-08T12:17:42.456Z,9.52
2023-05-08T12:20:17.413Z,8.10
2023-05-08T12:22:52.462Z,7.55
2023-05-08T12:25:19.981Z,9.10
2023-05-08T12:27:47.708Z,9.20
2023-05-08T12:30:15.834Z,9.65
2023-05-08T12:32:44.680Z,9.43
2023-05-08T12:35:13.274Z,8.38
2023-05-08T12:37:41.184Z,8.98
2023-05-08T12:40:09.172Z,7.20
2023-05-08T12:42:46.216Z,6.35
2023-05-08T12:45:28.023Z,5.97
2023-05-08T12:48:00.764Z,6.22
2023-05-08T12:50:30.488Z,6.22
2023-05-08T12:53:08.131Z,6.85
2023-05-08T12:55:36.677Z,7.13
2023-05-08T12:58:05.483Z,7.32
2023-05-08T13:00:42.120Z,8.10
2023-05-08T13:03:11.661Z,8.00
2023-05-08T13:05:43.375Z,7.85
2023-05-08T13:08:11.206Z,7.65
2023-05-08T13:10:46.308Z,8.38
2023-05-08T13:13:14.396Z,8.60
2023-05-08T13:15:41.906Z,9.35
2023-05-08T13:18:09.510Z,10.05
2023-05-08T13:20:37.266Z,9.25
2023-05-08T13:23:05.055Z,10.18
2023-05-08T13:25:32.815Z,9.75
2023-05-08T13:28:00.590Z,10.38
2023-05-08T13:30:28.217Z,9.75
2023-05-08T13:32:55.879Z,10.02
2023-05-08T13:35:23.768Z,9.93
2023-05-08T13:37:51.509Z,9.52
2023-05-08T13:40:19.336Z,10.10
2023-05-08T13:42:46.843Z,10.13
2023-05-08T13:45:14.871Z,10.40
2023-05-08T13:47:43.079Z,9.10
2023-05-08T13:50:11.405Z,9.93
2023-05-08T13:52:39.658Z,9.55
2023-05-08T13:55:08.172Z,10.68
2023-05-08T13:57:35.761Z,9.80
2023-05-08T14:00:04.368Z,9.68
2023-05-08T14:02:34.964Z,8.23
2023-05-08T14:05:02.509Z,6.20
2023-05-08T14:07:30.159Z,7.28
2023-05-08T14:09:57.704Z,7.40
2023-05-08T14:12:25.073Z,7.50
2023-05-08T14:14:52.554Z,8.30
2023-05-08T14:17:19.937Z,7.38
2023-05-08T14:19:47.526Z,6.93
2023-05-08T14:22:14.921Z,6.78
2023-05-08T14:24:42.382Z,6.82
2023-05-08T14:27:09.983Z,7.05
2023-05-08T14:29:37.452Z,8.00
2023-05-08T14:32:05.233Z,8.40
2023-05-08T14:34:32.857Z,8.15
2023-05-08T14:37:00.237Z,8.38
2023-05-08T14:39:27.688Z,9.07
2023-05-08T14:42:18.234Z,8.93
2023-05-08T14:44:42.731Z,8.13
2023-05-08T14:47:10.257Z,7.47
2023-05-08T14:49:38.819Z,8.10
2023-05-08T14:52:07.363Z,8.20
2023-05-08T14:54:35.014Z,7.60
2023-05-08T14:57:02.674Z,7.78
2023-05-08T14:59:30.173Z,8.10
2023-05-08T15:01:57.658Z,7.63
2023-05-08T15:04:25.187Z,7.70
2023-05-08T15:06:52.657Z,7.93
2023-05-08T15:09:20.079Z,7.55
2023-05-08T15:11:47.513Z,7.85
2023-05-08T15:14:15.032Z,7.93
2023-05-08T15:16:42.778Z,8.90
2023-05-08T15:19:10.264Z,9.45
2023-05-08T15:21:37.723Z,7.63
2023-05-08T15:24:05.234Z,7.05
2023-05-08T15:26:32.807Z,7.18
2023-05-08T15:29:00.146Z,10.18
2023-05-08T15:31:28.034Z,10.48
2023-05-08T15:33:55.420Z,7.30
2023-05-08T15:36:22.899Z,7.32
2023-05-08T15:38:50.787Z,7.30
2023-05-08T15:41:18.211Z,7.82
2023-05-08T15:43:45.835Z,7.22
2023-05-08T15:46:13.224Z,7.28
2023-05-08T15:48:40.644Z,8.02
2023-05-08T15:51:12.082Z,8.00
2023-05-08T15:53:45.645Z,11.55
2023-05-08T15:56:13.095Z,7.50
2023-05-08T15:58:40.716Z,10.15
2023-05-08T16:01:08.725Z,8.18
2023-05-08T16:03:36.233Z,9.25
2023-05-08T16:06:03.674Z,7.90
2023-05-08T16:08:31.337Z,7.18
2023-05-08T16:10:58.807Z,11.55
2023-05-08T16:13:26.540Z,12.90
2023-05-08T16:15:53.958Z,11.35
2023-05-08T16:18:21.379Z,7.75
2023-05-08T16:20:48.762Z,9.00
2023-05-08T16:23:16.229Z,7.30
2023-05-08T16:25:43.625Z,8.25
2023-05-08T16:28:11.037Z,7.45
2023-05-08T16:30:38.433Z,6.20
2023-05-08T16:33:05.956Z,7.80
2023-05-08T16:35:34.692Z,10.00
2023-05-08T16:38:03.015Z,13.38
2023-05-08T16:40:31.625Z,8.57
2023-05-08T16:42:59.075Z,16.40
2023-05-08T16:45:26.500Z,6.60
2023-05-08T16:47:53.911Z,7.70
2023-05-08T16:50:21.368Z,12.05
2023-05-08T16:52:48.778Z,10.80
2023-05-08T16:55:16.450Z,11.82
2023-05-08T16:57:43.917Z,7.60
2023-05-08T17:00:12.059Z,5.72
2023-05-08T17:02:39.675Z,5.95
2023-05-08T17:05:07.447Z,5.47
2023-05-08T17:07:35.002Z,5.72
2023-05-08T17:10:02.496Z,6.70
2023-05-08T17:12:29.891Z,6.75
2023-05-08T17:14:57.520Z,6.20
2023-05-08T17:17:24.894Z,7.43
2023-05-08T17:19:52.250Z,7.18
2023-05-08T17:22:20.602Z,8.18
2023-05-08T17:24:48.045Z,7.43
2023-05-08T17:27:15.597Z,6.53
2023-05-08T17:29:42.981Z,6.55
2023-05-08T17:32:10.499Z,6.57
2023-05-08T17:34:38.026Z,8.00
2023-05-08T17:37:05.509Z,7.63
2023-05-08T17:39:32.976Z,6.13
2023-05-08T17:42:00.525Z,6.47
2023-05-08T17:44:28.019Z,6.13
2023-05-08T17:46:55.424Z,6.70
2023-05-08T17:49:22.818Z,7.00
2023-05-08T17:51:50.410Z,6.40
2023-05-08T17:54:17.926Z,7.60
2023-05-08T17:56:45.795Z,7.57
2023-05-08T17:59:13.313Z,8.18
2023-05-08T18:01:40.730Z,7.68
2023-05-08T18:04:08.518Z,8.70
2023-05-08T18:06:36.019Z,8.18
2023-05-08T18:09:03.535Z,8.80
2023-05-08T18:11:30.871Z,9.38
2023-05-08T18:13:58.328Z,8.95
2023-05-08T18:16:25.828Z,9.48
2023-05-08T18:18:53.262Z,9.95
2023-05-08T18:21:20.689Z,10.32
2023-05-08T18:23:48.349Z,11.95
2023-05-08T18:26:16.248Z,10.20
2023-05-08T18:28:44.261Z,11.52
2023-05-08T18:31:12.255Z,11.25
2023-05-08T18:33:40.044Z,12.80
2023-05-08T18:36:07.564Z,12.45
2023-05-08T18:38:35.641Z,13.32
2023-05-08T18:41:03.830Z,12.15
2023-05-08T18:43:31.382Z,14.10
2023-05-08T18:46:00.568Z,12.63
2023-05-08T18:48:29.499Z,12.27
2023-05-08T18:50:58.740Z,11.27
2023-05-08T18:53:26.284Z,11.10
2023-05-08T18:55:53.628Z,10.57
2023-05-08T18:58:20.965Z,10.68
2023-05-08T19:00:51.741Z,8.45
2023-05-08T19:03:19.301Z,6.43
2023-05-08T19:05:46.666Z,7.72
2023-05-08T19:08:15.600Z,7.00
2023-05-08T19:10:43.001Z,7.07
2023-05-08T19:13:10.485Z,5.95
2023-05-08T19:15:37.900Z,5.20
2023-05-08T19:18:06.592Z,5.65
2023-05-08T19:20:34.140Z,5.13
2023-05-08T19:23:01.554Z,4.43
2023-05-08T19:25:28.926Z,4.03
2023-05-08T19:27:58.606Z,3.20
2023-05-08T19:30:26.060Z,3.05
2023-05-08T19:32:53.426Z,3.25
2023-05-08T19:35:21.250Z,3.03
2023-05-08T19:37:48.731Z,2.63
2023-05-08T19:40:16.460Z,2.85
2023-05-08T19:42:45.697Z,2.60
2023-05-08T19:45:13.397Z,2.78
2023-05-08T19:47:40.886Z,2.75
2023-05-08T19:50:08.766Z,2.75
2023-05-08T19:52:36.209Z,2.70
2023-05-08T19:55:03.682Z,2.47
2023-05-08T19:57:31.118Z,2.70
2023-05-08T19:59:58.589Z,2.90
2023-05-08T20:02:25.990Z,2.78
2023-05-08T20:05:18.820Z,2.83
2023-05-08T20:07:40.806Z,2.45
2023-05-08T20:10:08.536Z,2.60
2023-05-08T20:12:35.969Z,2.50
2023-05-08T20:15:03.507Z,2.58
2023-05-08T20:17:30.959Z,2.78
2023-05-08T20:19:58.347Z,2.63
2023-05-08T20:22:25.783Z,2.70
2023-05-08T20:24:53.217Z,2.67
2023-05-08T20:27:20.680Z,2.60
2023-05-08T20:29:48.077Z,3.05
2023-05-08T20:32:19.206Z,2.70
2023-05-08T20:34:46.668Z,2.67
2023-05-08T20:37:16.041Z,3.03
2023-05-08T20:39:43.806Z,3.08
2023-05-08T20:42:11.289Z,3.40
2023-05-08T20:44:38.783Z,3.30
2023-05-08T20:47:06.258Z,3.05
2023-05-08T20:49:33.699Z,3.50
2023-05-08T20:52:01.096Z,3.50
2023-05-08T20:54:29.952Z,3.50
2023-05-08T20:56:57.427Z,3.80
2023-05-08T20:59:24.874Z,4.15
2023-05-08T21:01:52.273Z,4.05
2023-05-08T21:04:19.717Z,4.18
2023-05-08T21:06:47.124Z,4.50
2023-05-08T21:09:14.540Z,4.60
2023-05-08T21:11:41.898Z,5.13
2023-05-08T21:14:09.293Z,5.20
2023-05-08T21:16:36.726Z,5.40
2023-05-08T21:19:04.244Z,6.05
2023-05-08T21:21:31.788Z,5.60
2023-05-08T21:23:59.232Z,5.57
2023-05-08T21:26:27.012Z,5.35
2023-05-08T21:28:54.628Z,6.47
2023-05-08T21:31:22.516Z,6.65
2023-05-08T21:33:50.066Z,7.30
2023-05-08T21:36:17.446Z,6.88
2023-05-08T21:38:44.892Z,6.55
2023-05-08T21:41:12.257Z,7.55
2023-05-08T21:43:39.739Z,8.20
2023-05-08T21:46:09.204Z,8.70
2023-05-08T21:48:37.347Z,8.38
2023-05-08T21:51:06.665Z,7.70
2023-05-08T21:53:34.148Z,8.23
2023-05-08T21:56:01.511Z,10.50
2023-05-08T21:58:28.968Z,10.77
2023-05-08T22:00:58.411Z,10.00
2023-05-08T22:03:26.312Z,10.25
2023-05-08T22:05:55.372Z,9.25
2023-05-08T22:08:22.761Z,9.30
2023-05-08T22:10:50.114Z,8.98
2023-05-08T22:13:17.584Z,9.55
2023-05-08T22:15:45.089Z,10.95
2023-05-08T22:18:13.444Z,11.65
2023-05-08T22:20:40.991Z,10.88
2023-05-08T22:23:08.507Z,12.70
2023-05-08T22:25:36.046Z,10.82
2023-05-08T22:28:03.464Z,10.80
2023-05-08T22:30:30.818Z,9.77
2023-05-08T22:32:59.481Z,10.00
2023-05-08T22:35:27.736Z,10.52
2023-05-08T22:37:57.370Z,9.95
2023-05-08T22:40:24.836Z,10.57
2023-05-08T22:42:53.527Z,11.02
2023-05-08T22:45:21.314Z,9.23
2023-05-08T22:47:48.941Z,9.77
2023-05-08T22:50:17.266Z,10.02
2023-05-08T22:52:44.785Z,9.38
2023-05-08T22:55:12.372Z,10.20
2023-05-08T22:57:39.923Z,9.88
2023-05-08T23:00:07.634Z,9.88
2023-05-08T23:02:35.687Z,9.57
2023-05-08T23:05:03.863Z,8.43
2023-05-08T23:07:31.319Z,9.30
2023-05-08T23:09:58.701Z,10.00
2023-05-08T23:12:26.224Z,8.63
2023-05-08T23:14:53.665Z,8.95
2023-05-08T23:17:21.076Z,8.98
2023-05-08T23:19:48.525Z,9.48
2023-05-08T23:22:15.947Z,9.70
2023-05-08T23:24:43.431Z,10.70
2023-05-08T23:27:10.800Z,10.75
2023-05-08T23:29:38.198Z,11.27
2023-05-08T23:32:05.703Z,10.65
2023-05-08T23:34:33.089Z,10.40
2023-05-08T23:37:01.659Z,9.98
2023-05-08T23:39:29.130Z,8.95
2023-05-08T23:41:56.505Z,9.32
2023-05-08T23:44:23.899Z,7.93
2023-05-08T23:46:51.382Z,9.18
2023-05-08T23:49:18.791Z,9.02
2023-05-08T23:51:46.248Z,8.65
2023-05-08T23:54:13.700Z,8.73
2023-05-08T23:56:41.209Z,8.27
2023-05-08T23:59:08.582Z,8.88
